Time;durP1;ratioP1;P1;durP2;ratioP2;P2;SDS_P1;SDS_P2;PMS_P1;PMS_P2;Temp;Humidity;BMP_temperature;BMP_pressure;BME280_temperature;BME280_humidity;BME280_pressure;Samples;Min_cycle;Max_cycle;Signal;HPM_P1;HPM_P2
2023/01/17 00:01:44;;;;;;;2.08;0.60;;;;;;;2.70;100.00;98344.91;6132971;23;20447;-74
2023/01/17 00:09:57;;;;;;;2.83;0.35;;;;;;;2.66;100.00;98355.56;6159101;23;20014;-74
2023/01/17 00:12:26;;;;;;;6.75;0.82;;;;;;;2.63;100.00;98361.72;6158409;23;20022;-74
2023/01/17 00:14:55;;;;;;;2.03;0.57;;;;;;;2.62;100.00;98368.13;6131544;23;20084;-74
2023/01/17 00:17:23;;;;;;;5.80;0.98;;;;;;;2.62;100.00;98368.13;6131958;23;20049;-74
2023/01/17 01:35:35;;;;;;;1.20;0.60;;;;;;;1.87;100.00;98481.50;6157946;23;20341;-76
2023/01/17 01:38:02;;;;;;;5.53;1.40;;;;;;;1.86;100.00;98485.28;6158207;23;20073;-76
2023/01/17 01:40:28;;;;;;;1.50;0.75;;;;;;;1.79;100.00;98482.94;6158292;23;20041;-76
2023/01/17 01:42:57;;;;;;;1.83;0.30;;;;;;;1.71;100.00;98484.34;6158219;23;20077;-76
2023/01/17 01:45:28;;;;;;;1.17;0.30;;;;;;;1.63;100.00;98491.75;6157536;23;20304;-76
2023/01/17 01:48:04;;;;;;;1.30;0.45;;;;;;;1.57;100.00;98487.53;6158131;23;20014;-74
2023/01/17 01:50:34;;;;;;;1.75;0.63;;;;;;;1.54;100.00;98493.63;6157806;23;20463;-74
2023/01/17 01:53:04;;;;;;;1.98;0.40;;;;;;;1.50;100.00;98488.53;6131580;23;20025;-75
2023/01/17 01:55:50;;;;;;;0.82;0.20;;;;;;;1.43;100.00;98501.91;6157695;23;20463;-74
2023/01/17 01:58:21;;;;;;;0.95;0.22;;;;;;;1.38;100.00;98499.84;6158018;23;20064;-74
2023/01/17 02:00:48;;;;;;;8.18;0.30;;;;;;;1.32;100.00;98497.03;6157712;23;20448;-74
2023/01/17 02:03:28;;;;;;;0.30;0.13;;;;;;;1.27;100.00;98510.69;6131939;23;20117;-75
2023/01/17 02:06:00;;;;;;;1.65;0.30;;;;;;;1.24;100.00;98513.44;6131753;23;20069;-75
2023/01/17 02:08:27;;;;;;;2.50;0.22;;;;;;;1.19;100.00;98529.75;6157938;23;20098;-75
2023/01/17 02:10:54;;;;;;;2.00;0.10;;;;;;;1.17;100.00;98535.41;6157910;23;20018;-76
2023/01/17 02:13:21;;;;;;;3.30;0.20;;;;;;;1.12;100.00;98533.34;6158474;23;20026;-76
2023/01/17 02:16:04;;;;;;;2.85;0.10;;;;;;;1.15;100.00;98550.13;6108300;23;20419;-76
2023/01/17 02:19:04;;;;;;;0.10;0.00;;;;;;;1.13;100.00;98560.28;6132821;23;20049;-74
2023/01/17 02:21:38;;;;;;;0.75;0.13;;;;;;;1.08;100.00;98569.44;6159185;23;20036;-74
2023/01/17 02:24:52;;;;;;;0.20;0.20;;;;;;;1.06;100.00;98576.25;6159321;23;20018;-74
2023/01/17 02:27:38;;;;;;;0.13;0.13;;;;;;;1.01;100.00;98577.53;6068257;23;20029;-74
2023/01/17 02:30:26;;;;;;;0.45;0.40;;;;;;;0.97;100.00;98582.88;6067710;23;20019;-74
2023/01/17 02:33:01;;;;;;;1.55;0.40;;;;;;;0.99;100.00;98575.34;6068664;23;20031;-74
2023/01/17 02:35:47;;;;;;;3.65;0.50;;;;;;;1.00;100.00;98571.56;6068665;23;20048;-74
2023/01/17 02:38:30;;;;;;;0.50;0.30;;;;;;;1.00;100.00;98563.69;6068891;23;20027;-74
2023/01/17 02:41:07;;;;;;;0.40;0.40;;;;;;;1.02;100.00;98567.78;6068947;23;20458;-74
2023/01/17 02:43:36;;;;;;;3.55;0.50;;;;;;;1.02;100.00;98571.13;6067777;23;20042;-74
2023/01/17 02:46:02;;;;;;;2.72;0.50;;;;;;;1.06;100.00;98576.25;6068458;23;20023;-75
2023/01/17 02:48:31;;;;;;;3.03;0.70;;;;;;;1.05;100.00;98572.91;6068426;23;20058;-75
2023/01/17 02:51:25;;;;;;;0.90;0.35;;;;;;;1.06;100.00;98571.75;6068229;23;20020;-75
2023/01/17 02:53:52;;;;;;;1.42;0.60;;;;;;;1.04;100.00;98586.44;6068361;23;20458;-75
2023/01/17 02:56:35;;;;;;;2.70;0.52;;;;;;;1.00;100.00;98576.78;6068563;23;20034;-75
2023/01/17 02:59:19;;;;;;;3.40;0.50;;;;;;;0.99;100.00;98577.22;6067794;23;20026;-74
2023/01/17 03:02:24;;;;;;;3.80;0.50;;;;;;;0.98;100.00;98586.25;6068707;23;20071;-74
2023/01/17 03:05:04;;;;;;;1.75;0.32;;;;;;;0.93;100.00;98584.88;6140814;23;20478;-74
2023/01/17 03:07:31;;;;;;;2.72;0.77;;;;;;;0.93;100.00;98592.75;6133116;23;20022;-75
2023/01/17 03:10:04;;;;;;;2.08;0.73;;;;;;;0.92;100.00;98585.31;6132713;23;20479;-75
2023/01/17 03:12:34;;;;;;;1.48;0.32;;;;;;;0.91;100.00;98583.84;6132305;23;20022;-74
2023/01/17 03:15:00;;;;;;;10.13;0.80;;;;;;;0.90;100.00;98592.88;6158898;23;20440;-75
2023/01/17 03:17:31;;;;;;;3.22;0.50;;;;;;;0.87;100.00;98591.09;6158824;23;20022;-75
2023/01/17 03:19:57;;;;;;;0.25;0.20;;;;;;;0.85;100.00;98596.75;6158776;23;20062;-76
2023/01/17 03:22:24;;;;;;;4.20;0.60;;;;;;;0.86;100.00;98597.50;6158443;23;20022;-75
2023/01/17 03:24:50;;;;;;;4.70;0.68;;;;;;;0.84;100.00;98600.53;6158299;23;20021;-75
2023/01/17 03:27:17;;;;;;;3.53;0.47;;;;;;;0.85;100.00;98604.63;6157988;23;20022;-74
2023/01/17 03:29:43;;;;;;;0.88;0.77;;;;;;;0.87;100.00;98606.81;6132971;23;20396;-74
2023/01/17 03:32:10;;;;;;;3.00;0.32;;;;;;;0.88;100.00;98613.50;6132906;23;20018;-76
2023/01/17 03:34:36;;;;;;;1.10;0.43;;;;;;;0.86;100.00;98611.31;6158706;23;20513;-74
2023/01/17 03:37:03;;;;;;;2.97;0.35;;;;;;;0.84;100.00;98611.00;6158740;23;20022;-74
2023/01/17 03:39:29;;;;;;;1.70;0.30;;;;;;;0.82;100.00;98610.69;6159168;23;20025;-74
2023/01/17 03:41:56;;;;;;;2.17;0.30;;;;;;;0.81;100.00;98616.38;6158400;23;20034;-74
2023/01/17 03:44:22;;;;;;;2.17;0.30;;;;;;;0.81;100.00;98611.13;6158901;23;20010;-74
2023/01/17 03:46:48;;;;;;;4.05;0.50;;;;;;;0.78;100.00;98615.34;6132429;23;20018;-76
2023/01/17 03:49:15;;;;;;;5.65;0.93;;;;;;;0.79;100.00;98624.66;6159271;23;20048;-77
2023/01/17 03:51:42;;;;;;;1.75;0.80;;;;;;;0.75;100.00;98629.28;6159277;23;20042;-74
2023/01/17 03:54:08;;;;;;;1.73;0.50;;;;;;;0.71;100.00;98631.28;6158982;23;20460;-76
2023/01/17 03:56:35;;;;;;;2.85;0.57;;;;;;;0.69;100.00;98630.25;6132360;23;20255;-77
2023/01/17 03:59:02;;;;;;;2.47;0.40;;;;;;;0.66;100.00;98637.06;6158858;23;20456;-75
2023/01/17 04:01:28;;;;;;;0.80;0.55;;;;;;;0.63;100.00;98627.44;6108126;23;20416;-74
2023/01/17 04:03:55;;;;;;;4.47;0.47;;;;;;;0.62;100.00;98636.44;6158815;23;20084;-75
2023/01/17 04:06:21;;;;;;;3.05;0.50;;;;;;;0.58;100.00;98630.56;6132769;23;20025;-75
2023/01/17 04:08:48;;;;;;;3.10;0.80;;;;;;;0.57;100.00;98635.06;6159320;23;20018;-77
2023/01/17 04:11:14;;;;;;;3.03;0.38;;;;;;;0.53;100.00;98633.72;6132647;23;20361;-74
2023/01/17 04:13:41;;;;;;;1.88;0.47;;;;;;;0.51;100.00;98642.00;6158873;23;20028;-77
2023/01/17 04:16:14;;;;;;;0.95;0.20;;;;;;;0.47;100.00;98646.59;6158851;23;20085;-75
2023/01/17 04:18:41;;;;;;;1.75;0.52;;;;;;;0.42;100.00;98659.50;6158608;23;20414;-75
2023/01/17 04:21:08;;;;;;;1.25;0.55;;;;;;;0.37;100.00;98655.53;6158870;23;20382;-75
2023/01/17 04:23:34;;;;;;;3.17;0.47;;;;;;;0.36;100.00;98658.56;6158723;23;20037;-75
2023/01/17 04:26:02;;;;;;;2.88;0.50;;;;;;;0.32;100.00;98659.41;6158346;23;20018;-75
2023/01/17 04:28:29;;;;;;;1.00;0.50;;;;;;;0.33;100.00;98650.41;6158580;23;20014;-75
2023/01/17 04:30:59;;;;;;;0.50;0.45;;;;;;;0.32;100.00;98642.97;6158794;23;20025;-74
2023/01/17 04:33:25;;;;;;;3.58;0.55;;;;;;;0.32;100.00;98642.97;6158557;23;20014;-75
2023/01/17 04:35:53;;;;;;;0.85;0.52;;;;;;;0.30;100.00;98640.78;6131950;23;20026;-74
2023/01/17 04:38:20;;;;;;;4.38;0.80;;;;;;;0.29;100.00;98639.31;6158483;23;20496;-77
2023/01/17 04:40:47;;;;;;;2.42;0.90;;;;;;;0.28;100.00;98637.84;6158382;23;20049;-74
2023/01/17 04:43:14;;;;;;;3.38;0.68;;;;;;;0.26;100.00;98636.81;6159011;23;20018;-74
2023/01/17 04:45:41;;;;;;;3.05;0.52;;;;;;;0.25;100.00;98630.09;6132864;23;20018;-75
2023/01/17 04:48:11;;;;;;;2.55;0.50;;;;;;;0.23;100.00;98630.53;6158664;23;20493;-75
2023/01/17 04:50:38;;;;;;;0.77;0.40;;;;;;;0.21;100.00;98635.44;6132828;23;20045;-75
2023/01/17 04:53:05;;;;;;;4.13;0.60;;;;;;;0.22;100.00;98631.66;6158351;23;20075;-75
2023/01/17 04:55:31;;;;;;;2.83;0.80;;;;;;;0.22;100.00;98634.28;6131857;23;20025;-75
2023/01/17 04:57:58;;;;;;;1.67;0.47;;;;;;;0.21;100.00;98627.59;6158496;23;20018;-75
2023/01/17 05:00:24;;;;;;;0.77;0.55;;;;;;;0.21;100.00;98630.19;6158708;23;20029;-75
2023/01/17 05:02:51;;;;;;;0.93;0.38;;;;;;;0.20;100.00;98633.25;6158680;23;20014;-75
2023/01/17 05:05:17;;;;;;;1.17;0.77;;;;;;;0.19;100.00;98635.13;6158619;23;20105;-76
2023/01/17 05:07:52;;;;;;;0.60;0.60;;;;;;;0.18;100.00;98636.28;6158456;23;20264;-76
2023/01/17 05:10:18;;;;;;;3.88;0.55;;;;;;;0.16;100.00;98638.56;6158879;23;20492;-75
2023/01/17 05:12:52;;;;;;;0.85;0.30;;;;;;;0.14;100.00;98640.16;6158800;23;20077;-75
2023/01/17 05:15:19;;;;;;;5.78;0.40;;;;;;;0.13;100.00;98649.16;6158479;23;20078;-76
2023/01/17 05:17:45;;;;;;;1.40;0.40;;;;;;;0.09;100.00;98654.47;6158576;23;20018;-75
2023/01/17 05:20:12;;;;;;;4.03;0.57;;;;;;;0.06;100.00;98647.47;6158064;23;20050;-75
2023/01/17 05:22:38;;;;;;;1.45;0.55;;;;;;;0.04;100.00;98656.88;6157639;23;20014;-75
2023/01/17 05:25:06;;;;;;;0.82;0.40;;;;;;;0.00;100.00;98659.63;6131712;23;20026;-76
2023/01/17 05:27:32;;;;;;;4.05;0.80;;;;;;;-0.01;100.00;98666.00;6158358;23;20474;-76
2023/01/17 05:29:59;;;;;;;2.38;0.75;;;;;;;-0.05;100.00;98658.25;6158275;23;20018;-76
2023/01/17 05:32:25;;;;;;;0.80;0.38;;;;;;;-0.05;100.00;98655.63;6158070;23;20024;-76
2023/01/17 05:34:51;;;;;;;5.03;1.00;;;;;;;-0.07;100.00;98657.22;6158178;23;20026;-76
2023/01/17 05:37:18;;;;;;;7.47;0.60;;;;;;;-0.09;100.00;98664.72;6157612;23;20018;-76
2023/01/17 05:39:44;;;;;;;3.83;0.63;;;;;;;-0.09;100.00;98662.13;6158617;23;20045;-76
2023/01/17 05:42:11;;;;;;;2.17;0.68;;;;;;;-0.11;100.00;98662.53;6158200;23;20018;-76
2023/01/17 05:44:37;;;;;;;2.05;0.60;;;;;;;-0.11;100.00;98667.03;6158298;23;20427;-76
2023/01/17 05:47:04;;;;;;;2.13;0.55;;;;;;;-0.14;100.00;98675.72;6131820;23;20077;-76
2023/01/17 05:49:30;;;;;;;1.63;0.82;;;;;;;-0.15;100.00;98671.63;6133148;23;20024;-77
2023/01/17 05:51:57;;;;;;;1.25;0.70;;;;;;;-0.15;100.00;98672.38;6132363;23;20045;-76
2023/01/17 05:54:24;;;;;;;2.75;0.65;;;;;;;-0.16;100.00;98680.63;6133353;23;20022;-76
2023/01/17 05:56:50;;;;;;;3.13;0.80;;;;;;;-0.17;100.00;98687.72;6159428;23;20416;-76
2023/01/17 05:59:17;;;;;;;4.13;0.50;;;;;;;-0.19;100.00;98687.41;6158087;23;20018;-76
2023/01/17 06:02:01;;;;;;;1.35;0.80;;;;;;;-0.20;100.00;98685.94;6159447;23;20045;-76
2023/01/17 06:04:28;;;;;;;5.80;0.93;;;;;;;-0.19;100.00;98686.69;6159435;23;20029;-76
2023/01/17 06:06:54;;;;;;;2.22;0.90;;;;;;;-0.17;100.00;98692.97;6158867;23;20018;-77
2023/01/17 06:09:21;;;;;;;2.58;1.27;;;;;;;-0.17;100.00;98695.56;6159482;23;20480;-76
2023/01/17 06:11:47;;;;;;;13.13;1.60;;;;;;;-0.15;100.00;98708.97;6159776;23;20101;-76
2023/01/17 06:14:13;;;;;;;2.10;1.35;;;;;;;-0.12;100.00;98712.66;6159614;23;20028;-76
2023/01/17 06:16:40;;;;;;;2.35;1.50;;;;;;;-0.09;100.00;98706.59;6159727;23;20520;-76
2023/01/17 06:19:08;;;;;;;1.40;1.30;;;;;;;-0.09;100.00;98707.31;6158860;23;20018;-77
2023/01/17 06:21:34;;;;;;;2.50;1.58;;;;;;;-0.07;100.00;98720.72;6158902;23;20081;-76
2023/01/17 06:24:01;;;;;;;3.22;1.92;;;;;;;-0.02;100.00;98722.09;6133332;23;20022;-76
2023/01/17 06:26:29;;;;;;;4.57;1.42;;;;;;;0.01;100.00;98723.84;6159460;23;20080;-76
2023/01/17 06:28:56;;;;;;;5.35;1.67;;;;;;;0.05;100.00;98726.38;6159436;23;20340;-76
2023/01/17 06:31:22;;;;;;;7.22;1.75;;;;;;;0.06;100.00;98725.22;6159184;23;20014;-76
2023/01/17 06:33:49;;;;;;;1.75;1.65;;;;;;;0.04;100.00;98717.78;6159165;23;20461;-76
2023/01/17 06:36:15;;;;;;;4.22;1.85;;;;;;;0.07;100.00;98708.38;6158526;23;20018;-76
2023/01/17 06:38:42;;;;;;;5.15;2.45;;;;;;;0.04;100.00;98709.94;6159330;23;20089;-76
2023/01/17 06:41:09;;;;;;;6.75;2.40;;;;;;;0.03;100.00;98697.28;6133057;23;20026;-76
2023/01/17 06:43:35;;;;;;;4.32;3.00;;;;;;;0.02;100.00;98699.16;6159220;23;20409;-76
2023/01/17 06:46:01;;;;;;;5.05;2.90;;;;;;;0.00;100.00;98701.47;6159618;23;20018;-76
2023/01/17 06:48:28;;;;;;;3.25;2.97;;;;;;;-0.02;100.00;98706.38;6159943;23;20452;-77
2023/01/17 06:50:56;;;;;;;4.93;3.30;;;;;;;-0.05;100.00;98707.97;6157004;23;20519;-76
2023/01/17 06:53:23;;;;;;;7.80;2.85;;;;;;;-0.06;100.00;98708.38;6157800;23;20461;-76
2023/01/17 06:55:51;;;;;;;5.80;3.03;;;;;;;-0.08;100.00;98708.06;6157257;23;20021;-77
2023/01/17 06:58:17;;;;;;;5.45;3.17;;;;;;;-0.11;100.00;98717.47;6157846;23;20073;-76
2023/01/17 07:00:44;;;;;;;4.22;2.97;;;;;;;-0.12;100.00;98725.72;6158704;23;20520;-75
2023/01/17 07:03:23;;;;;;;2.50;2.30;;;;;;;-0.14;100.00;98715.66;6160052;23;20459;-76
2023/01/17 07:05:50;;;;;;;3.17;2.65;;;;;;;-0.15;100.00;98726.56;6159116;23;20014;-75
2023/01/17 07:08:18;;;;;;;7.78;2.72;;;;;;;-0.18;100.00;98717.66;6160249;23;20021;-78
2023/01/17 07:10:46;;;;;;;5.53;2.75;;;;;;;-0.19;100.00;98725.91;6158467;23;20018;-77
2023/01/17 07:13:13;;;;;;;5.45;2.80;;;;;;;-0.20;100.00;98724.44;6159668;23;20018;-76
2023/01/17 07:15:39;;;;;;;10.82;3.20;;;;;;;-0.23;100.00;98723.38;6133854;23;20030;-77
2023/01/17 07:18:06;;;;;;;3.22;2.63;;;;;;;-0.24;100.00;98719.31;6159980;23;20018;-76
2023/01/17 07:20:33;;;;;;;4.60;2.58;;;;;;;-0.25;100.00;98720.44;6159442;23;20372;-77
2023/01/17 07:22:59;;;;;;;3.97;2.38;;;;;;;-0.27;100.00;98727.97;6159982;23;20025;-76
2023/01/17 07:25:26;;;;;;;6.53;2.78;;;;;;;-0.28;100.00;98728.38;6133715;23;20089;-78
2023/01/17 07:27:56;;;;;;;3.47;2.88;;;;;;;-0.30;100.00;98723.56;6133912;23;20018;-77
2023/01/17 07:30:23;;;;;;;4.35;2.60;;;;;;;-0.32;100.00;98728.47;6109177;23;20020;-77
2023/01/17 07:32:54;;;;;;;3.25;2.63;;;;;;;-0.32;100.00;98727.75;6159038;23;20018;-76
2023/01/17 07:35:25;;;;;;;4.00;2.75;;;;;;;-0.34;100.00;98728.91;6160059;23;20022;-76
2023/01/17 07:37:53;;;;;;;11.20;2.75;;;;;;;-0.36;100.00;98727.84;6159900;23;20053;-78
2023/01/17 07:40:21;;;;;;;5.88;2.80;;;;;;;-0.37;100.00;98721.13;6159994;23;20093;-76
2023/01/17 07:42:47;;;;;;;7.55;3.08;;;;;;;-0.40;100.00;98722.69;6160167;23;20021;-77
2023/01/17 07:45:15;;;;;;;4.50;2.50;;;;;;;-0.40;100.00;98725.31;6160099;23;20073;-77
2023/01/17 07:47:42;;;;;;;3.15;2.47;;;;;;;-0.40;100.00;98733.16;6159266;23;20036;-76
2023/01/17 07:50:09;;;;;;;8.48;3.80;;;;;;;-0.43;100.00;98736.63;6159719;23;20018;-77
2023/01/17 07:52:35;;;;;;;7.00;3.25;;;;;;;-0.43;100.00;98736.63;6160015;23;20018;-77
2023/01/17 07:55:02;;;;;;;4.63;2.63;;;;;;;-0.44;100.00;98737.75;6159347;23;20025;-77
2023/01/17 07:57:29;;;;;;;4.18;2.65;;;;;;;-0.45;100.00;98733.69;6134323;23;20018;-77
2023/01/17 07:59:55;;;;;;;3.72;2.65;;;;;;;-0.45;100.00;98741.53;6160066;23;20049;-77
2023/01/17 08:02:22;;;;;;;4.85;2.92;;;;;;;-0.46;100.00;98742.66;6159585;23;20445;-77
2023/01/17 08:04:49;;;;;;;4.95;2.97;;;;;;;-0.46;100.00;98736.72;6160963;23;20062;-77
2023/01/17 08:07:15;;;;;;;4.97;2.42;;;;;;;-0.47;100.00;98735.97;6160703;23;20124;-78
2023/01/17 08:09:43;;;;;;;7.30;3.22;;;;;;;-0.46;100.00;98734.09;6133445;23;20448;-78
2023/01/17 08:12:09;;;;;;;4.03;2.90;;;;;;;-0.44;100.00;98740.38;6133360;23;20022;-77
2023/01/17 08:14:36;;;;;;;3.40;2.78;;;;;;;-0.43;100.00;98736.63;6160138;23;20471;-77
2023/01/17 08:17:05;;;;;;;8.75;3.20;;;;;;;-0.44;100.00;98745.59;6159704;23;20100;-78
2023/01/17 08:19:31;;;;;;;9.52;3.25;;;;;;;-0.45;100.00;98741.53;6133209;23;20025;-77
2023/01/17 08:21:58;;;;;;;6.07;2.70;;;;;;;-0.45;100.00;98733.69;6159607;23;20024;-77
2023/01/17 08:24:24;;;;;;;3.42;2.08;;;;;;;-0.45;100.00;98744.13;6133473;23;20018;-76
2023/01/17 08:26:53;;;;;;;3.83;2.15;;;;;;;-0.44;100.00;98756.06;6159543;23;20044;-76
2023/01/17 08:29:20;;;;;;;3.42;2.13;;;;;;;-0.42;100.00;98748.53;6159838;23;20018;-76
2023/01/17 08:31:47;;;;;;;4.30;2.10;;;;;;;-0.40;100.00;98753.38;6159086;23;20480;-75
2023/01/17 08:34:14;;;;;;;7.00;2.42;;;;;;;-0.40;100.00;98754.06;6159605;23;20077;-75
2023/01/17 08:36:42;;;;;;;3.25;2.10;;;;;;;-0.40;100.00;98756.69;6159786;23;20024;-75
2023/01/17 08:39:11;;;;;;;6.47;1.90;;;;;;;-0.38;100.00;98756.28;6159498;23;20093;-76
2023/01/17 08:41:38;;;;;;;1.80;1.60;;;;;;;-0.36;100.00;98759.22;6160071;23;20022;-76
2023/01/17 08:44:04;;;;;;;5.75;1.90;;;;;;;-0.34;100.00;98762.16;6159275;23;20447;-75
2023/01/17 08:46:31;;;;;;;4.30;1.63;;;;;;;-0.33;100.00;98766.22;6157752;23;20344;-75
2023/01/17 08:48:58;;;;;;;3.33;1.67;;;;;;;-0.34;100.00;98767.38;6159319;23;20235;-76
2023/01/17 08:51:26;;;;;;;3.67;1.88;;;;;;;-0.33;100.00;98768.84;6159658;23;20018;-77
2023/01/17 08:53:54;;;;;;;7.68;2.60;;;;;;;-0.33;100.00;98771.47;6159154;23;20034;-75
2023/01/17 08:56:25;;;;;;;4.95;1.73;;;;;;;-0.34;100.00;98770.00;6160080;23;20436;-76
2023/01/17 08:58:52;;;;;;;11.30;2.28;;;;;;;-0.32;100.00;98780.03;6159659;23;20018;-77
2023/01/17 09:01:19;;;;;;;4.18;1.58;;;;;;;-0.34;100.00;98778.56;6133059;23;20029;-79
2023/01/17 09:03:48;;;;;;;3.00;1.45;;;;;;;-0.35;100.00;98781.59;6160515;23;20073;-78
2023/01/17 09:06:14;;;;;;;1.60;1.40;;;;;;;-0.33;100.00;98781.91;6159712;23;20041;-79
2023/01/17 09:08:45;;;;;;;3.40;1.48;;;;;;;-0.31;100.00;98789.34;6159761;23;20045;-78
2023/01/17 09:11:15;;;;;;;3.10;1.50;;;;;;;-0.29;100.00;98787.78;6159487;23;20029;-78
2023/01/17 09:13:41;;;;;;;2.38;1.50;;;;;;;-0.29;100.00;98790.41;6159355;23;20020;-75
2023/01/17 09:16:09;;;;;;;8.52;1.65;;;;;;;-0.30;100.00;98790.81;6158321;23;20527;-74
2023/01/17 09:18:36;;;;;;;1.67;1.55;;;;;;;-0.30;100.00;98791.56;6158713;23;20093;-74
2023/01/17 09:21:10;;;;;;;3.50;1.92;;;;;;;-0.30;100.00;98794.16;6158769;23;20022;-75
2023/01/17 09:23:37;;;;;;;4.28;1.55;;;;;;;-0.29;100.00;98797.53;6160508;23;20468;-77
2023/01/17 09:26:06;;;;;;;4.82;1.75;;;;;;;-0.27;100.00;98805.69;6160199;23;20101;-78
2023/01/17 09:28:39;;;;;;;3.55;1.50;;;;;;;-0.24;100.00;98797.03;6160817;23;20022;-76
2023/01/17 09:31:07;;;;;;;4.03;1.70;;;;;;;-0.19;100.00;98799.88;6133303;23;20065;-81
2023/01/17 09:33:34;;;;;;;6.63;1.60;;;;;;;-0.15;100.00;98797.91;6160458;23;20014;-76
2023/01/17 09:36:03;;;;;;;5.63;1.92;;;;;;;-0.12;100.00;98802.31;6160089;23;20459;-77
2023/01/17 09:38:31;;;;;;;2.50;1.73;;;;;;;-0.06;100.00;98808.50;6160352;23;20427;-77
2023/01/17 09:41:00;;;;;;;12.13;2.13;;;;;;;-0.03;100.00;98809.56;6159900;23;20017;-76
2023/01/17 09:43:36;;;;;;;3.38;1.70;;;;;;;-0.03;100.00;98812.91;6160079;23;20463;-75
2023/01/17 09:46:21;;;;;;;3.05;1.52;;;;;;;-0.01;100.00;98812.50;6160213;23;20456;-76
2023/01/17 09:48:55;;;;;;;;;;;;;;;0.03;100.00;98817.63;6160937;23;20045;-75
2023/01/17 09:51:26;;;;;;;3.55;1.60;;;;;;;0.09;100.00;98815.97;6160715;23;20374;-76
2023/01/17 09:53:53;;;;;;;8.57;1.58;;;;;;;0.12;100.00;98822.97;6160272;23;20014;-76
2023/01/17 09:56:28;;;;;;;8.35;1.40;;;;;;;0.14;100.00;98828.53;6160445;23;20022;-76
2023/01/17 09:59:10;;;;;;;3.67;2.00;;;;;;;0.19;100.00;98826.16;6133929;23;20014;-77
2023/01/17 10:01:51;;;;;;;9.93;2.15;;;;;;;0.24;100.00;98832.75;6160144;23;20018;-76
2023/01/17 10:04:50;;;;;;;4.93;2.78;;;;;;;0.26;100.00;98838.31;6160785;23;20467;-76
2023/01/17 10:07:37;;;;;;;7.75;2.45;;;;;;;0.31;100.00;98845.66;6160313;23;20018;-74
2023/01/17 10:10:30;;;;;;;2.88;2.22;;;;;;;0.35;100.00;98835.09;6159927;23;20021;-74
2023/01/17 10:13:07;;;;;;;11.15;4.22;;;;;;;0.37;100.00;98838.03;6159286;23;20022;-74
2023/01/17 10:15:34;;;;;;;3.78;2.70;;;;;;;0.43;100.00;98828.50;6160507;23;20018;-75
2023/01/17 10:18:23;;;;;;;7.80;2.60;;;;;;;0.45;100.00;98831.44;6160260;23;20022;-75
2023/01/17 10:21:14;;;;;;;7.20;2.67;;;;;;;0.51;100.00;98830.50;6159693;23;20022;-74
2023/01/17 10:23:58;;;;;;;5.13;2.58;;;;;;;0.52;100.00;98829.34;6160439;23;20018;-74
2023/01/17 10:26:25;;;;;;;5.93;2.60;;;;;;;0.56;100.00;98835.22;6160468;23;20024;-74
2023/01/17 10:28:59;;;;;;;7.50;3.00;;;;;;;0.62;100.00;98830.94;6159618;23;20467;-74
2023/01/17 10:31:33;;;;;;;4.25;3.10;;;;;;;0.66;100.00;98836.09;6160810;23;20024;-74
2023/01/17 10:34:11;;;;;;;8.80;3.20;;;;;;;0.68;100.00;98831.16;6160465;23;20472;-75
2023/01/17 10:36:43;;;;;;;5.35;3.25;;;;;;;0.71;100.00;98827.72;6160411;23;20014;-74
2023/01/17 10:39:18;;;;;;;;;;;;;;;0.72;100.00;98834.41;6160671;23;20018;-74
2023/01/17 10:41:56;;;;;;;4.05;3.22;;;;;;;0.73;100.00;98838.50;6159924;23;19928;-75
2023/01/17 10:44:36;;;;;;;9.57;3.75;;;;;;;0.75;100.00;98840.72;6160381;23;20022;-74
2023/01/17 10:47:17;;;;;;;3.72;3.13;;;;;;;0.79;100.00;98836.09;6160111;23;20014;-73
2023/01/17 10:49:47;;;;;;;9.60;4.43;;;;;;;0.81;100.00;98842.38;6160456;23;20452;-74
2023/01/17 10:52:36;;;;;;;7.83;3.90;;;;;;;0.82;100.00;98832.63;6160441;23;20449;-74
2023/01/17 10:55:14;;;;;;;9.82;4.45;;;;;;;0.86;100.00;98841.13;6159854;23;20085;-74
2023/01/17 10:57:47;;;;;;;4.30;3.90;;;;;;;0.90;100.00;98842.47;6159722;23;20018;-75
2023/01/17 11:00:27;;;;;;;8.95;4.55;;;;;;;0.96;100.00;98840.81;6160504;23;20041;-75
2023/01/17 11:02:54;;;;;;;8.20;4.78;;;;;;;1.02;100.00;98838.41;6160824;23;20086;-74
2023/01/17 11:05:25;;;;;;;6.47;4.80;;;;;;;1.04;100.00;98840.59;6134160;23;20420;-74
2023/01/17 11:08:01;;;;;;;18.30;4.50;;;;;;;1.02;100.00;98845.53;6159822;23;20014;-74
2023/01/17 11:10:42;;;;;;;8.18;4.63;;;;;;;1.00;100.00;98849.31;6159346;23;20014;-74
2023/01/17 11:13:31;;;;;;;6.95;4.25;;;;;;;1.06;100.00;98854.03;6159983;23;20045;-74
2023/01/17 11:16:01;;;;;;;6.22;4.90;;;;;;;1.10;100.00;98849.41;6159680;23;20026;-74
2023/01/17 11:18:30;;;;;;;7.13;4.43;;;;;;;1.13;100.00;98856.44;6159649;23;20451;-75
2023/01/17 11:21:08;;;;;;;6.63;4.47;;;;;;;1.11;100.00;98841.13;6159679;23;20432;-74
2023/01/17 11:23:34;;;;;;;12.55;4.82;;;;;;;1.07;100.00;98843.13;6160394;23;20415;-74
2023/01/17 11:26:04;;;;;;;6.47;4.43;;;;;;;1.05;100.00;98847.31;6159183;23;20018;-75
2023/01/17 11:28:34;;;;;;;8.68;4.90;;;;;;;1.05;100.00;98836.81;6160026;23;20018;-73
2023/01/17 11:31:06;;;;;;;7.20;4.78;;;;;;;1.01;100.00;98831.69;6159760;23;20050;-73
2023/01/17 11:33:44;;;;;;;8.70;4.60;;;;;;;0.99;100.00;98834.00;6160046;23;20014;-73
2023/01/17 11:36:23;;;;;;;7.93;4.30;;;;;;;1.02;100.00;98833.16;6159770;23;20022;-73
2023/01/17 11:39:04;;;;;;;5.03;4.22;;;;;;;1.03;100.00;98833.88;6159500;23;20018;-73
2023/01/17 11:41:39;;;;;;;6.22;4.55;;;;;;;1.01;100.00;98831.69;6159652;23;20033;-73
2023/01/17 11:44:22;;;;;;;6.82;4.28;;;;;;;1.06;100.00;98835.69;6159818;23;20467;-72
2023/01/17 11:47:15;;;;;;;6.88;3.85;;;;;;;1.09;100.00;98834.84;6158763;23;20022;-74
2023/01/17 11:49:45;;;;;;;7.85;4.50;;;;;;;1.14;100.00;98829.81;6159999;23;20048;-75
2023/01/17 11:52:23;;;;;;;9.20;4.35;;;;;;;1.15;100.00;98831.28;6159734;23;20018;-73
2023/01/17 11:54:54;;;;;;;5.03;4.40;;;;;;;1.15;100.00;98828.66;6158750;23;20499;-73
2023/01/17 11:57:23;;;;;;;9.20;4.93;;;;;;;1.19;100.00;98833.78;6134581;23;20056;-74
2023/01/17 12:00:02;;;;;;;10.00;4.85;;;;;;;1.25;100.00;98826.84;6159583;23;20018;-74
2023/01/17 12:03:17;;;;;;;4.68;3.90;;;;;;;1.31;100.00;98836.38;6160093;23;20077;-73
2023/01/17 12:06:12;;;;;;;6.70;4.07;;;;;;;1.33;100.00;98835.94;6115134;23;20018;-73
2023/01/17 12:09:01;;;;;;;7.13;4.30;;;;;;;1.39;100.00;98828.28;6159565;23;20018;-73
2023/01/17 12:13:59;;;;;;;5.07;3.97;;;;;;;1.45;100.00;98819.47;6159974;23;20021;-73
2023/01/17 12:15:07;;;;;;;6.57;4.00;;;;;;;1.53;100.00;98819.97;6159561;23;20018;-73
2023/01/17 18:48:36;;;;;;;23.73;12.45;;;;;;;-0.97;99.53;99031.63;6211946;22;1219865;-76
2023/01/17 18:51:12;;;;;;;23.20;12.18;;;;;;;-0.94;99.76;99037.91;6219873;23;20016;-76
2023/01/17 18:53:40;;;;;;;15.27;9.18;;;;;;;-0.94;99.49;99038.66;6220150;23;20387;-75
2023/01/17 18:56:13;;;;;;;14.10;8.38;;;;;;;-0.94;100.00;99037.91;6218863;23;20033;-75
2023/01/17 18:58:41;;;;;;;11.98;7.22;;;;;;;-0.94;100.00;99043.88;6219829;23;20049;-75
2023/01/17 19:01:09;;;;;;;9.88;6.93;;;;;;;-0.96;100.00;99035.72;6219321;23;20378;-75
2023/01/17 19:03:38;;;;;;;10.13;6.10;;;;;;;-0.96;100.00;99037.59;6219979;23;20498;-75
2023/01/17 19:06:06;;;;;;;6.45;5.20;;;;;;;-0.98;100.00;99037.97;6219291;23;20443;-75
2023/01/17 19:08:33;;;;;;;12.63;5.90;;;;;;;-1.00;100.00;99042.88;6219465;23;20371;-77
2023/01/17 19:11:03;;;;;;;8.27;5.65;;;;;;;-1.01;100.00;99041.41;6218744;23;20017;-76
2023/01/17 19:13:31;;;;;;;9.38;6.25;;;;;;;-1.06;100.00;99050.44;6219772;23;20013;-75
2023/01/17 19:15:59;;;;;;;10.15;6.88;;;;;;;-1.06;100.00;99044.47;6192637;23;20100;-75
2023/01/17 19:18:26;;;;;;;9.27;6.80;;;;;;;-1.07;100.00;99050.84;6219666;23;20374;-74
2023/01/17 19:20:53;;;;;;;10.73;7.88;;;;;;;-1.09;99.85;99050.50;6219134;23;20388;-76
2023/01/17 19:23:20;;;;;;;10.55;7.65;;;;;;;-1.13;100.00;99055.03;6218891;23;20013;-75
2023/01/17 19:25:52;;;;;;;11.88;7.28;;;;;;;-1.15;99.99;99049.47;6219422;23;20395;-75
2023/01/17 19:28:18;;;;;;;;;;;;;;;-1.19;100.00;99046.94;6220171;23;20423;-75
2023/01/17 19:30:45;;;;;;;11.27;6.95;;;;;;;-1.20;100.00;99057.81;6218995;23;19990;-76
2023/01/17 19:33:11;;;;;;;10.98;7.75;;;;;;;-1.22;100.00;99060.81;6219530;23;20017;-75
2023/01/17 19:35:38;;;;;;;13.25;8.05;;;;;;;-1.24;99.79;99060.47;6192563;23;20088;-75
2023/01/17 19:38:04;;;;;;;11.80;6.85;;;;;;;-1.24;100.00;99064.94;6218746;23;20021;-75
2023/01/17 19:40:31;;;;;;;14.27;7.60;;;;;;;-1.28;100.00;99064.28;6219660;23;20403;-75